sensor_id;sensor_type;location;lat;lon;timestamp;P1;durP1;ratioP1;P2;durP2;ratioP2
34070;SDS011;77342;53.012;6.556;2024-03-22T00:01:44;30.67;;;17.38;;
34070;SDS011;77342;53.012;6.556;2024-03-22T00:04:12;30.40;;;17.05;;
34070;SDS011;77342;53.012;6.556;2024-03-22T00:06:39;32.75;;;18.13;;
34070;SDS011;77342;53.012;6.556;2024-03-22T00:09:08;32.92;;;18.35;;
34070;SDS011;77342;53.012;6.556;2024-03-22T00:11:36;31.00;;;18.13;;
34070;SDS011;77342;53.012;6.556;2024-03-22T00:14:02;33.47;;;18.75;;
34070;SDS011;77342;53.012;6.556;2024-03-22T00:16:29;29.55;;;18.20;;
34070;SDS011;77342;53.012;6.556;2024-03-22T00:18:55;31.67;;;17.77;;
34070;SDS011;77342;53.012;6.556;2024-03-22T00:21:21;30.52;;;18.38;;
34070;SDS011;77342;53.012;6.556;2024-03-22T00:23:48;32.05;;;18.90;;
34070;SDS011;77342;53.012;6.556;2024-03-22T00:26:14;36.45;;;19.17;;
34070;SDS011;77342;53.012;6.556;2024-03-22T00:28:40;33.30;;;18.55;;
34070;SDS011;77342;53.012;6.556;2024-03-22T00:31:07;33.13;;;19.08;;
34070;SDS011;77342;53.012;6.556;2024-03-22T00:33:33;31.73;;;18.70;;
34070;SDS011;77342;53.012;6.556;2024-03-22T00:36:00;33.80;;;19.67;;
34070;SDS011;77342;53.012;6.556;2024-03-22T00:38:25;39.95;;;20.25;;
34070;SDS011;77342;53.012;6.556;2024-03-22T00:40:52;36.58;;;20.58;;
34070;SDS011;77342;53.012;6.556;2024-03-22T00:43:18;36.30;;;20.15;;
34070;SDS011;77342;53.012;6.556;2024-03-22T00:45:46;36.63;;;21.13;;
34070;SDS011;77342;53.012;6.556;2024-03-22T00:48:12;40.88;;;21.48;;
34070;SDS011;77342;53.012;6.556;2024-03-22T00:50:38;37.35;;;20.67;;
34070;SDS011;77342;53.012;6.556;2024-03-22T00:53:04;38.90;;;20.23;;
34070;SDS011;77342;53.012;6.556;2024-03-22T00:55:33;35.90;;;21.10;;
34070;SDS011;77342;53.012;6.556;2024-03-22T00:58:00;39.33;;;21.10;;
34070;SDS011;77342;53.012;6.556;2024-03-22T01:00:27;40.78;;;22.65;;
34070;SDS011;77342;53.012;6.556;2024-03-22T01:02:53;38.30;;;21.13;;
34070;SDS011;77342;53.012;6.556;2024-03-22T01:05:19;40.08;;;22.55;;
34070;SDS011;77342;53.012;6.556;2024-03-22T01:07:45;39.38;;;21.90;;
34070;SDS011;77342;53.012;6.556;2024-03-22T01:10:12;46.97;;;23.13;;
34070;SDS011;77342;53.012;6.556;2024-03-22T01:12:38;39.97;;;22.00;;
34070;SDS011;77342;53.012;6.556;2024-03-22T01:15:05;45.83;;;23.60;;
34070;SDS011;77342;53.012;6.556;2024-03-22T01:17:33;39.55;;;22.58;;
34070;SDS011;77342;53.012;6.556;2024-03-22T01:20:01;46.30;;;23.33;;
34070;SDS011;77342;53.012;6.556;2024-03-22T01:22:27;44.28;;;23.15;;
34070;SDS011;77342;53.012;6.556;2024-03-22T01:24:55;46.70;;;23.73;;
34070;SDS011;77342;53.012;6.556;2024-03-22T01:27:20;49.30;;;24.13;;
34070;SDS011;77342;53.012;6.556;2024-03-22T01:29:46;50.40;;;24.27;;
34070;SDS011;77342;53.012;6.556;2024-03-22T01:32:12;45.15;;;24.92;;
34070;SDS011;77342;53.012;6.556;2024-03-22T01:34:39;41.63;;;24.55;;
34070;SDS011;77342;53.012;6.556;2024-03-22T01:37:05;46.78;;;25.35;;
34070;SDS011;77342;53.012;6.556;2024-03-22T01:39:32;45.08;;;24.42;;
34070;SDS011;77342;53.012;6.556;2024-03-22T01:41:58;48.05;;;25.77;;
34070;SDS011;77342;53.012;6.556;2024-03-22T01:44:28;46.15;;;24.52;;
34070;SDS011;77342;53.012;6.556;2024-03-22T01:53:37;53.13;;;26.13;;
34070;SDS011;77342;53.012;6.556;2024-03-22T01:56:07;49.95;;;26.17;;
34070;SDS011;77342;53.012;6.556;2024-03-22T01:58:33;49.47;;;25.98;;
34070;SDS011;77342;53.012;6.556;2024-03-22T02:01:00;51.55;;;27.65;;
34070;SDS011;77342;53.012;6.556;2024-03-22T02:03:25;53.88;;;26.92;;
34070;SDS011;77342;53.012;6.556;2024-03-22T02:05:52;48.45;;;26.50;;
34070;SDS011;77342;53.012;6.556;2024-03-22T02:08:17;51.47;;;27.55;;
34070;SDS011;77342;53.012;6.556;2024-03-22T02:10:44;51.72;;;26.38;;
34070;SDS011;77342;53.012;6.556;2024-03-22T02:13:10;52.15;;;26.17;;
34070;SDS011;77342;53.012;6.556;2024-03-22T02:15:37;52.78;;;28.35;;
34070;SDS011;77342;53.012;6.556;2024-03-22T02:18:02;50.85;;;27.40;;
34070;SDS011;77342;53.012;6.556;2024-03-22T02:20:29;51.25;;;26.88;;
34070;SDS011;77342;53.012;6.556;2024-03-22T02:22:54;53.10;;;28.23;;
34070;SDS011;77342;53.012;6.556;2024-03-22T02:25:21;52.90;;;29.23;;
34070;SDS011;77342;53.012;6.556;2024-03-22T02:27:46;52.47;;;27.83;;
34070;SDS011;77342;53.012;6.556;2024-03-22T02:30:15;54.47;;;29.02;;
34070;SDS011;77342;53.012;6.556;2024-03-22T02:32:41;54.65;;;28.20;;
34070;SDS011;77342;53.012;6.556;2024-03-22T02:35:08;56.53;;;28.77;;
34070;SDS011;77342;53.012;6.556;2024-03-22T02:37:37;53.20;;;27.73;;
34070;SDS011;77342;53.012;6.556;2024-03-22T02:40:04;58.42;;;29.15;;
34070;SDS011;77342;53.012;6.556;2024-03-22T02:42:30;56.72;;;28.80;;
34070;SDS011;77342;53.012;6.556;2024-03-22T02:44:56;53.15;;;28.00;;
34070;SDS011;77342;53.012;6.556;2024-03-22T02:47:22;60.33;;;29.65;;
34070;SDS011;77342;53.012;6.556;2024-03-22T02:49:48;57.30;;;28.20;;
34070;SDS011;77342;53.012;6.556;2024-03-22T02:52:14;58.35;;;30.15;;
34070;SDS011;77342;53.012;6.556;2024-03-22T02:54:41;57.08;;;27.45;;
34070;SDS011;77342;53.012;6.556;2024-03-22T02:57:06;54.28;;;29.42;;
34070;SDS011;77342;53.012;6.556;2024-03-22T02:59:33;55.90;;;28.75;;
34070;SDS011;77342;53.012;6.556;2024-03-22T03:01:58;55.70;;;29.35;;
34070;SDS011;77342;53.012;6.556;2024-03-22T03:04:25;56.13;;;29.75;;
34070;SDS011;77342;53.012;6.556;2024-03-22T03:06:50;59.92;;;30.15;;
34070;SDS011;77342;53.012;6.556;2024-03-22T03:09:17;55.78;;;29.33;;
34070;SDS011;77342;53.012;6.556;2024-03-22T03:11:43;60.67;;;29.38;;
34070;SDS011;77342;53.012;6.556;2024-03-22T03:14:09;55.10;;;28.90;;
34070;SDS011;77342;53.012;6.556;2024-03-22T03:16:35;60.63;;;29.08;;
34070;SDS011;77342;53.012;6.556;2024-03-22T03:19:01;58.38;;;29.35;;
34070;SDS011;77342;53.012;6.556;2024-03-22T03:21:27;55.67;;;29.33;;
34070;SDS011;77342;53.012;6.556;2024-03-22T03:23:53;61.95;;;29.65;;
34070;SDS011;77342;53.012;6.556;2024-03-22T03:26:19;59.78;;;29.98;;
34070;SDS011;77342;53.012;6.556;2024-03-22T03:28:46;56.30;;;28.50;;
34070;SDS011;77342;53.012;6.556;2024-03-22T03:31:11;56.35;;;28.88;;
34070;SDS011;77342;53.012;6.556;2024-03-22T03:33:37;60.28;;;29.90;;
34070;SDS011;77342;53.012;6.556;2024-03-22T03:36:03;64.10;;;30.90;;
34070;SDS011;77342;53.012;6.556;2024-03-22T03:38:30;62.45;;;30.48;;
34070;SDS011;77342;53.012;6.556;2024-03-22T03:40:55;60.53;;;30.17;;
34070;SDS011;77342;53.012;6.556;2024-03-22T03:43:22;66.20;;;30.85;;
34070;SDS011;77342;53.012;6.556;2024-03-22T03:45:47;65.82;;;30.50;;
34070;SDS011;77342;53.012;6.556;2024-03-22T03:48:14;59.72;;;29.80;;
34070;SDS011;77342;53.012;6.556;2024-03-22T03:50:39;65.13;;;30.00;;
34070;SDS011;77342;53.012;6.556;2024-03-22T03:53:08;62.47;;;29.60;;
34070;SDS011;77342;53.012;6.556;2024-03-22T03:55:34;63.47;;;29.70;;
34070;SDS011;77342;53.012;6.556;2024-03-22T03:58:00;61.30;;;30.38;;
34070;SDS011;77342;53.012;6.556;2024-03-22T04:00:26;62.13;;;29.17;;
34070;SDS011;77342;53.012;6.556;2024-03-22T04:02:52;57.60;;;28.90;;
34070;SDS011;77342;53.012;6.556;2024-03-22T04:05:19;59.17;;;29.50;;
34070;SDS011;77342;53.012;6.556;2024-03-22T04:07:49;59.33;;;29.77;;
34070;SDS011;77342;53.012;6.556;2024-03-22T04:10:14;63.13;;;29.48;;
34070;SDS011;77342;53.012;6.556;2024-03-22T04:12:41;59.03;;;29.33;;
34070;SDS011;77342;53.012;6.556;2024-03-22T04:15:06;62.53;;;28.40;;
34070;SDS011;77342;53.012;6.556;2024-03-22T04:17:34;58.33;;;27.48;;
34070;SDS011;77342;53.012;6.556;2024-03-22T04:19:59;63.65;;;28.15;;
34070;SDS011;77342;53.012;6.556;2024-03-22T04:22:26;59.83;;;29.27;;
34070;SDS011;77342;53.012;6.556;2024-03-22T04:24:52;58.42;;;27.35;;
34070;SDS011;77342;53.012;6.556;2024-03-22T04:27:19;62.67;;;27.98;;
34070;SDS011;77342;53.012;6.556;2024-03-22T04:29:47;59.03;;;27.17;;
34070;SDS011;77342;53.012;6.556;2024-03-22T04:32:15;56.30;;;27.27;;
34070;SDS011;77342;53.012;6.556;2024-03-22T04:34:43;63.72;;;27.92;;
34070;SDS011;77342;53.012;6.556;2024-03-22T04:37:11;62.63;;;27.08;;
34070;SDS011;77342;53.012;6.556;2024-03-22T04:39:38;57.40;;;25.88;;
34070;SDS011;77342;53.012;6.556;2024-03-22T04:42:06;57.67;;;26.17;;
34070;SDS011;77342;53.012;6.556;2024-03-22T04:44:33;58.83;;;26.17;;
34070;SDS011;77342;53.012;6.556;2024-03-22T04:46:59;49.90;;;24.73;;
34070;SDS011;77342;53.012;6.556;2024-03-22T04:49:26;51.97;;;26.05;;
34070;SDS011;77342;53.012;6.556;2024-03-22T04:51:51;54.30;;;26.45;;
34070;SDS011;77342;53.012;6.556;2024-03-22T04:54:18;54.58;;;27.17;;
34070;SDS011;77342;53.012;6.556;2024-03-22T04:56:44;59.90;;;26.58;;
34070;SDS011;77342;53.012;6.556;2024-03-22T04:59:10;52.58;;;24.27;;
34070;SDS011;77342;53.012;6.556;2024-03-22T05:01:36;52.10;;;25.35;;
34070;SDS011;77342;53.012;6.556;2024-03-22T05:04:02;60.33;;;24.83;;
34070;SDS011;77342;53.012;6.556;2024-03-22T05:06:28;54.00;;;24.23;;
34070;SDS011;77342;53.012;6.556;2024-03-22T05:08:55;54.05;;;24.75;;
34070;SDS011;77342;53.012;6.556;2024-03-22T05:11:20;51.03;;;23.25;;
34070;SDS011;77342;53.012;6.556;2024-03-22T05:13:47;46.85;;;22.42;;
34070;SDS011;77342;53.012;6.556;2024-03-22T05:16:12;49.50;;;22.85;;
34070;SDS011;77342;53.012;6.556;2024-03-22T05:18:39;50.53;;;23.90;;
34070;SDS011;77342;53.012;6.556;2024-03-22T05:21:04;47.22;;;22.48;;
34070;SDS011;77342;53.012;6.556;2024-03-22T05:23:31;45.15;;;21.90;;
34070;SDS011;77342;53.012;6.556;2024-03-22T05:25:57;45.33;;;22.58;;
34070;SDS011;77342;53.012;6.556;2024-03-22T05:28:25;47.72;;;22.20;;
34070;SDS011;77342;53.012;6.556;2024-03-22T05:30:50;46.78;;;21.83;;
34070;SDS011;77342;53.012;6.556;2024-03-22T05:33:17;46.38;;;22.10;;
34070;SDS011;77342;53.012;6.556;2024-03-22T05:35:43;44.28;;;20.33;;
34070;SDS011;77342;53.012;6.556;2024-03-22T05:38:09;42.20;;;19.90;;
34070;SDS011;77342;53.012;6.556;2024-03-22T05:40:38;42.40;;;21.17;;
34070;SDS011;77342;53.012;6.556;2024-03-22T05:43:04;43.83;;;20.40;;
34070;SDS011;77342;53.012;6.556;2024-03-22T05:45:30;50.25;;;21.02;;
34070;SDS011;77342;53.012;6.556;2024-03-22T05:47:56;44.22;;;20.92;;
34070;SDS011;77342;53.012;6.556;2024-03-22T05:50:22;52.38;;;22.75;;
34070;SDS011;77342;53.012;6.556;2024-03-22T05:52:49;44.88;;;21.58;;
34070;SDS011;77342;53.012;6.556;2024-03-22T05:55:14;48.45;;;21.73;;
34070;SDS011;77342;53.012;6.556;2024-03-22T05:57:41;51.55;;;21.52;;
34070;SDS011;77342;53.012;6.556;2024-03-22T06:00:06;47.65;;;22.02;;
34070;SDS011;77342;53.012;6.556;2024-03-22T06:02:33;53.13;;;21.90;;
34070;SDS011;77342;53.012;6.556;2024-03-22T06:04:59;43.15;;;21.75;;
34070;SDS011;77342;53.012;6.556;2024-03-22T06:07:25;47.30;;;21.80;;
34070;SDS011;77342;53.012;6.556;2024-03-22T06:09:51;48.58;;;22.73;;
34070;SDS011;77342;53.012;6.556;2024-03-22T06:12:18;46.03;;;22.38;;
34070;SDS011;77342;53.012;6.556;2024-03-22T06:14:44;48.72;;;22.02;;
34070;SDS011;77342;53.012;6.556;2024-03-22T06:17:11;50.35;;;21.90;;
34070;SDS011;77342;53.012;6.556;2024-03-22T06:19:37;44.25;;;21.75;;
34070;SDS011;77342;53.012;6.556;2024-03-22T06:22:04;46.87;;;22.43;;
34070;SDS011;77342;53.012;6.556;2024-03-22T06:24:30;45.08;;;22.15;;
34070;SDS011;77342;53.012;6.556;2024-03-22T06:26:56;47.83;;;21.95;;
34070;SDS011;77342;53.012;6.556;2024-03-22T06:29:22;45.38;;;20.83;;
34070;SDS011;77342;53.012;6.556;2024-03-22T06:31:49;49.78;;;22.63;;
34070;SDS011;77342;53.012;6.556;2024-03-22T06:34:15;47.30;;;22.50;;
34070;SDS011;77342;53.012;6.556;2024-03-22T06:36:42;48.63;;;22.50;;
34070;SDS011;77342;53.012;6.556;2024-03-22T06:39:08;44.25;;;21.55;;
34070;SDS011;77342;53.012;6.556;2024-03-22T06:41:35;47.33;;;22.35;;
34070;SDS011;77342;53.012;6.556;2024-03-22T06:44:01;45.28;;;21.00;;
34070;SDS011;77342;53.012;6.556;2024-03-22T06:46:28;44.28;;;20.35;;
34070;SDS011;77342;53.012;6.556;2024-03-22T06:48:53;48.67;;;21.23;;
34070;SDS011;77342;53.012;6.556;2024-03-22T06:51:20;47.05;;;20.98;;
34070;SDS011;77342;53.012;6.556;2024-03-22T06:53:46;46.88;;;20.60;;
34070;SDS011;77342;53.012;6.556;2024-03-22T06:56:13;55.90;;;22.42;;
34070;SDS011;77342;53.012;6.556;2024-03-22T06:58:38;46.20;;;20.02;;
34070;SDS011;77342;53.012;6.556;2024-03-22T07:01:05;46.08;;;21.33;;
34070;SDS011;77342;53.012;6.556;2024-03-22T07:03:30;48.97;;;20.58;;
34070;SDS011;77342;53.012;6.556;2024-03-22T07:05:57;46.85;;;20.17;;
34070;SDS011;77342;53.012;6.556;2024-03-22T07:08:23;46.40;;;20.02;;
34070;SDS011;77342;53.012;6.556;2024-03-22T07:10:50;47.28;;;19.73;;
34070;SDS011;77342;53.012;6.556;2024-03-22T07:13:16;46.67;;;19.63;;
34070;SDS011;77342;53.012;6.556;2024-03-22T07:15:44;44.95;;;20.27;;
34070;SDS011;77342;53.012;6.556;2024-03-22T07:18:13;47.33;;;20.65;;
34070;SDS011;77342;53.012;6.556;2024-03-22T07:20:40;39.03;;;19.02;;
34070;SDS011;77342;53.012;6.556;2024-03-22T07:23:07;41.58;;;18.48;;
34070;SDS011;77342;53.012;6.556;2024-03-22T07:25:36;46.75;;;18.27;;
34070;SDS011;77342;53.012;6.556;2024-03-22T07:28:02;39.92;;;17.77;;
34070;SDS011;77342;53.012;6.556;2024-03-22T07:30:28;39.08;;;17.73;;
34070;SDS011;77342;53.012;6.556;2024-03-22T07:32:54;40.08;;;18.38;;
34070;SDS011;77342;53.012;6.556;2024-03-22T07:35:21;36.15;;;17.05;;
34070;SDS011;77342;53.012;6.556;2024-03-22T07:37:47;37.33;;;17.63;;
34070;SDS011;77342;53.012;6.556;2024-03-22T07:40:13;33.38;;;16.52;;
34070;SDS011;77342;53.012;6.556;2024-03-22T07:42:39;34.75;;;15.85;;
34070;SDS011;77342;53.012;6.556;2024-03-22T07:45:06;38.53;;;16.38;;
34070;SDS011;77342;53.012;6.556;2024-03-22T07:47:31;35.05;;;15.90;;
34070;SDS011;77342;53.012;6.556;2024-03-22T07:49:59;34.92;;;15.13;;
34070;SDS011;77342;53.012;6.556;2024-03-22T07:52:25;38.20;;;15.77;;
34070;SDS011;77342;53.012;6.556;2024-03-22T07:54:51;33.85;;;14.85;;
34070;SDS011;77342;53.012;6.556;2024-03-22T07:57:17;34.03;;;13.88;;
34070;SDS011;77342;53.012;6.556;2024-03-22T07:59:43;35.42;;;14.45;;
34070;SDS011;77342;53.012;6.556;2024-03-22T08:02:09;29.45;;;13.27;;
34070;SDS011;77342;53.012;6.556;2024-03-22T08:04:36;36.70;;;14.73;;
34070;SDS011;77342;53.012;6.556;2024-03-22T08:07:02;32.10;;;13.27;;
34070;SDS011;77342;53.012;6.556;2024-03-22T08:09:28;32.50;;;13.23;;
34070;SDS011;77342;53.012;6.556;2024-03-22T08:11:54;31.33;;;13.40;;
34070;SDS011;77342;53.012;6.556;2024-03-22T08:14:21;36.90;;;12.98;;
34070;SDS011;77342;53.012;6.556;2024-03-22T08:16:46;33.25;;;13.45;;
34070;SDS011;77342;53.012;6.556;2024-03-22T08:19:14;32.45;;;13.35;;
34070;SDS011;77342;53.012;6.556;2024-03-22T08:21:41;28.17;;;12.57;;
34070;SDS011;77342;53.012;6.556;2024-03-22T08:24:07;32.03;;;13.32;;
34070;SDS011;77342;53.012;6.556;2024-03-22T08:26:33;32.40;;;13.80;;
34070;SDS011;77342;53.012;6.556;2024-03-22T08:29:00;25.65;;;12.48;;
34070;SDS011;77342;53.012;6.556;2024-03-22T08:31:25;30.23;;;12.55;;
34070;SDS011;77342;53.012;6.556;2024-03-22T08:33:53;29.42;;;12.27;;
34070;SDS011;77342;53.012;6.556;2024-03-22T08:36:21;34.33;;;12.57;;
34070;SDS011;77342;53.012;6.556;2024-03-22T08:38:50;27.60;;;12.30;;
34070;SDS011;77342;53.012;6.556;2024-03-22T08:41:16;30.05;;;11.77;;
34070;SDS011;77342;53.012;6.556;2024-03-22T08:43:44;22.38;;;11.45;;
34070;SDS011;77342;53.012;6.556;2024-03-22T08:46:10;32.00;;;11.57;;
34070;SDS011;77342;53.012;6.556;2024-03-22T08:48:37;26.48;;;11.27;;
34070;SDS011;77342;53.012;6.556;2024-03-22T08:51:02;24.20;;;10.02;;
34070;SDS011;77342;53.012;6.556;2024-03-22T08:53:30;29.40;;;11.68;;
34070;SDS011;77342;53.012;6.556;2024-03-22T08:55:55;25.60;;;10.70;;
34070;SDS011;77342;53.012;6.556;2024-03-22T08:58:21;22.50;;;10.38;;
34070;SDS011;77342;53.012;6.556;2024-03-22T09:00:47;24.17;;;9.98;;
34070;SDS011;77342;53.012;6.556;2024-03-22T09:03:14;32.25;;;12.23;;
34070;SDS011;77342;53.012;6.556;2024-03-22T09:05:40;23.75;;;10.98;;
34070;SDS011;77342;53.012;6.556;2024-03-22T09:08:07;23.05;;;10.48;;
34070;SDS011;77342;53.012;6.556;2024-03-22T09:10:32;19.83;;;9.90;;
34070;SDS011;77342;53.012;6.556;2024-03-22T09:12:59;24.95;;;11.20;;
34070;SDS011;77342;53.012;6.556;2024-03-22T09:15:25;25.27;;;10.27;;
34070;SDS011;77342;53.012;6.556;2024-03-22T09:17:51;17.75;;;9.20;;
34070;SDS011;77342;53.012;6.556;2024-03-22T09:20:17;18.48;;;9.65;;
34070;SDS011;77342;53.012;6.556;2024-03-22T09:22:44;20.55;;;10.38;;
34070;SDS011;77342;53.012;6.556;2024-03-22T09:25:10;23.27;;;9.30;;
34070;SDS011;77342;53.012;6.556;2024-03-22T09:27:36;21.70;;;9.85;;
34070;SDS011;77342;53.012;6.556;2024-03-22T09:30:02;21.27;;;8.77;;
34070;SDS011;77342;53.012;6.556;2024-03-22T09:32:29;21.90;;;8.80;;
34070;SDS011;77342;53.012;6.556;2024-03-22T09:34:55;17.88;;;8.95;;
34070;SDS011;77342;53.012;6.556;2024-03-22T09:37:22;20.15;;;8.73;;
34070;SDS011;77342;53.012;6.556;2024-03-22T09:39:47;20.40;;;9.13;;
34070;SDS011;77342;53.012;6.556;2024-03-22T09:42:15;19.77;;;8.57;;
34070;SDS011;77342;53.012;6.556;2024-03-22T09:44:44;16.02;;;8.30;;
34070;SDS011;77342;53.012;6.556;2024-03-22T09:47:17;17.02;;;8.38;;
34070;SDS011;77342;53.012;6.556;2024-03-22T09:49:43;16.70;;;8.30;;
34070;SDS011;77342;53.012;6.556;2024-03-22T09:52:13;16.55;;;8.10;;
34070;SDS011;77342;53.012;6.556;2024-03-22T09:54:43;21.05;;;8.35;;
34070;SDS011;77342;53.012;6.556;2024-03-22T09:57:12;16.00;;;7.68;;
34070;SDS011;77342;53.012;6.556;2024-03-22T09:59:41;16.88;;;7.50;;
34070;SDS011;77342;53.012;6.556;2024-03-22T10:02:12;14.40;;;7.18;;
34070;SDS011;77342;53.012;6.556;2024-03-22T10:04:38;16.52;;;7.55;;
34070;SDS011;77342;53.012;6.556;2024-03-22T10:07:06;13.30;;;6.70;;
34070;SDS011;77342;53.012;6.556;2024-03-22T10:09:33;16.50;;;7.13;;
34070;SDS011;77342;53.012;6.556;2024-03-22T10:12:00;17.40;;;7.25;;
34070;SDS011;77342;53.012;6.556;2024-03-22T10:14:25;12.77;;;6.97;;
34070;SDS011;77342;53.012;6.556;2024-03-22T10:16:52;13.95;;;6.43;;
34070;SDS011;77342;53.012;6.556;2024-03-22T10:19:19;14.60;;;6.45;;
34070;SDS011;77342;53.012;6.556;2024-03-22T10:22:19;14.50;;;7.50;;
34070;SDS011;77342;53.012;6.556;2024-03-22T10:24:41;12.20;;;5.82;;
34070;SDS011;77342;53.012;6.556;2024-03-22T10:27:08;9.90;;;5.35;;
34070;SDS011;77342;53.012;6.556;2024-03-22T10:29:34;11.88;;;6.47;;
34070;SDS011;77342;53.012;6.556;2024-03-22T10:32:02;11.70;;;6.40;;
34070;SDS011;77342;53.012;6.556;2024-03-22T10:34:28;12.05;;;6.00;;
34070;SDS011;77342;53.012;6.556;2024-03-22T10:36:55;13.60;;;6.10;;
34070;SDS011;77342;53.012;6.556;2024-03-22T10:39:21;10.43;;;5.32;;
34070;SDS011;77342;53.012;6.556;2024-03-22T10:41:49;13.13;;;5.25;;
34070;SDS011;77342;53.012;6.556;2024-03-22T10:44:15;8.38;;;4.28;;
34070;SDS011;77342;53.012;6.556;2024-03-22T10:46:46;9.10;;;5.00;;
34070;SDS011;77342;53.012;6.556;2024-03-22T10:49:16;9.65;;;4.63;;
34070;SDS011;77342;53.012;6.556;2024-03-22T10:51:44;11.57;;;4.88;;
34070;SDS011;77342;53.012;6.556;2024-03-22T10:54:14;9.07;;;4.68;;
34070;SDS011;77342;53.012;6.556;2024-03-22T10:56:45;10.27;;;4.07;;
34070;SDS011;77342;53.012;6.556;2024-03-22T10:59:14;9.90;;;4.30;;
34070;SDS011;77342;53.012;6.556;2024-03-22T11:01:44;10.13;;;4.35;;
34070;SDS011;77342;53.012;6.556;2024-03-22T11:04:10;8.02;;;4.03;;
34070;SDS011;77342;53.012;6.556;2024-03-22T11:06:37;8.18;;;4.15;;
34070;SDS011;77342;53.012;6.556;2024-03-22T11:09:03;8.23;;;4.28;;
34070;SDS011;77342;53.012;6.556;2024-03-22T11:11:30;7.63;;;4.10;;
34070;SDS011;77342;53.012;6.556;2024-03-22T11:13:56;7.95;;;4.22;;
34070;SDS011;77342;53.012;6.556;2024-03-22T11:16:23;8.90;;;4.10;;
34070;SDS011;77342;53.012;6.556;2024-03-22T11:18:50;8.52;;;4.05;;
34070;SDS011;77342;53.012;6.556;2024-03-22T11:21:16;7.32;;;3.80;;
34070;SDS011;77342;53.012;6.556;2024-03-22T11:23:46;8.10;;;4.03;;
34070;SDS011;77342;53.012;6.556;2024-03-22T11:26:12;7.00;;;3.40;;
34070;SDS011;77342;53.012;6.556;2024-03-22T11:28:39;7.20;;;4.03;;
34070;SDS011;77342;53.012;6.556;2024-03-22T11:31:05;9.05;;;3.35;;
34070;SDS011;77342;53.012;6.556;2024-03-22T11:33:32;8.30;;;3.63;;
34070;SDS011;77342;53.012;6.556;2024-03-22T11:36:01;8.32;;;4.03;;
34070;SDS011;77342;53.012;6.556;2024-03-22T11:38:29;8.75;;;3.50;;
34070;SDS011;77342;53.012;6.556;2024-03-22T11:40:57;6.93;;;3.20;;
34070;SDS011;77342;53.012;6.556;2024-03-22T11:43:27;6.30;;;2.97;;
34070;SDS011;77342;53.012;6.556;2024-03-22T11:45:54;6.38;;;2.95;;
34070;SDS011;77342;53.012;6.556;2024-03-22T11:48:21;7.25;;;3.10;;
34070;SDS011;77342;53.012;6.556;2024-03-22T11:50:48;6.25;;;3.10;;
34070;SDS011;77342;53.012;6.556;2024-03-22T11:53:16;7.90;;;3.20;;
34070;SDS011;77342;53.012;6.556;2024-03-22T11:55:42;6.20;;;3.20;;
34070;SDS011;77342;53.012;6.556;2024-03-22T11:58:09;6.60;;;3.15;;
34070;SDS011;77342;53.012;6.556;2024-03-22T12:00:35;6.65;;;2.65;;
34070;SDS011;77342;53.012;6.556;2024-03-22T12:03:05;6.10;;;2.33;;
34070;SDS011;77342;53.012;6.556;2024-03-22T12:05:31;5.05;;;2.15;;
34070;SDS011;77342;53.012;6.556;2024-03-22T12:07:57;5.93;;;2.65;;
34070;SDS011;77342;53.012;6.556;2024-03-22T12:10:23;7.20;;;2.25;;
34070;SDS011;77342;53.012;6.556;2024-03-22T12:12:49;5.80;;;2.40;;
34070;SDS011;77342;53.012;6.556;2024-03-22T12:15:15;7.03;;;2.70;;
34070;SDS011;77342;53.012;6.556;2024-03-22T12:17:41;6.00;;;2.58;;
34070;SDS011;77342;53.012;6.556;2024-03-22T12:20:08;5.55;;;2.38;;
34070;SDS011;77342;53.012;6.556;2024-03-22T12:22:35;6.78;;;2.33;;
34070;SDS011;77342;53.012;6.556;2024-03-22T12:25:01;6.80;;;2.38;;
34070;SDS011;77342;53.012;6.556;2024-03-22T12:27:30;6.47;;;2.55;;
34070;SDS011;77342;53.012;6.556;2024-03-22T12:29:56;7.88;;;2.47;;
34070;SDS011;77342;53.012;6.556;2024-03-22T12:32:22;6.82;;;2.17;;
34070;SDS011;77342;53.012;6.556;2024-03-22T12:34:49;7.32;;;2.42;;
34070;SDS011;77342;53.012;6.556;2024-03-22T12:37:15;6.10;;;2.40;;
34070;SDS011;77342;53.012;6.556;2024-03-22T12:39:41;7.25;;;2.50;;
34070;SDS011;77342;53.012;6.556;2024-03-22T12:42:07;9.20;;;3.05;;
34070;SDS011;77342;53.012;6.556;2024-03-22T12:44:33;9.32;;;2.90;;
34070;SDS011;77342;53.012;6.556;2024-03-22T12:47:00;9.32;;;2.80;;
34070;SDS011;77342;53.012;6.556;2024-03-22T12:49:26;5.22;;;2.28;;
34070;SDS011;77342;53.012;6.556;2024-03-22T12:51:53;7.90;;;2.75;;
34070;SDS011;77342;53.012;6.556;2024-03-22T12:54:18;8.30;;;2.40;;
34070;SDS011;77342;53.012;6.556;2024-03-22T12:56:46;7.90;;;2.35;;
34070;SDS011;77342;53.012;6.556;2024-03-22T12:59:13;7.20;;;2.50;;
34070;SDS011;77342;53.012;6.556;2024-03-22T13:01:40;7.93;;;2.47;;
34070;SDS011;77342;53.012;6.556;2024-03-22T13:04:05;7.78;;;2.50;;
34070;SDS011;77342;53.012;6.556;2024-03-22T13:06:32;7.25;;;2.63;;
34070;SDS011;77342;53.012;6.556;2024-03-22T13:08:59;8.35;;;2.80;;
34070;SDS011;77342;53.012;6.556;2024-03-22T13:11:26;8.90;;;3.00;;
34070;SDS011;77342;53.012;6.556;2024-03-22T13:13:53;9.07;;;2.97;;
34070;SDS011;77342;53.012;6.556;2024-03-22T13:16:19;7.88;;;2.90;;
34070;SDS011;77342;53.012;6.556;2024-03-22T13:18:45;10.73;;;2.80;;
34070;SDS011;77342;53.012;6.556;2024-03-22T13:21:12;10.18;;;2.92;;
34070;SDS011;77342;53.012;6.556;2024-03-22T13:23:37;12.48;;;3.30;;
34070;SDS011;77342;53.012;6.556;2024-03-22T13:26:04;7.93;;;2.80;;
34070;SDS011;77342;53.012;6.556;2024-03-22T13:28:30;13.18;;;3.00;;
34070;SDS011;77342;53.012;6.556;2024-03-22T13:31:00;12.40;;;3.53;;
34070;SDS011;77342;53.012;6.556;2024-03-22T13:33:31;13.35;;;3.22;;
34070;SDS011;77342;53.012;6.556;2024-03-22T13:36:00;11.18;;;3.45;;
34070;SDS011;77342;53.012;6.556;2024-03-22T13:38:26;13.55;;;3.28;;
34070;SDS011;77342;53.012;6.556;2024-03-22T13:40:57;12.60;;;3.55;;
34070;SDS011;77342;53.012;6.556;2024-03-22T13:43:23;12.63;;;4.13;;
34070;SDS011;77342;53.012;6.556;2024-03-22T13:45:50;15.40;;;4.18;;
34070;SDS011;77342;53.012;6.556;2024-03-22T13:48:19;13.73;;;4.53;;
34070;SDS011;77342;53.012;6.556;2024-03-22T13:50:49;13.35;;;4.22;;
34070;SDS011;77342;53.012;6.556;2024-03-22T13:53:15;12.50;;;4.10;;
34070;SDS011;77342;53.012;6.556;2024-03-22T13:55:42;14.68;;;4.00;;
34070;SDS011;77342;53.012;6.556;2024-03-22T13:58:08;12.75;;;3.92;;
34070;SDS011;77342;53.012;6.556;2024-03-22T14:00:34;12.68;;;4.05;;
34070;SDS011;77342;53.012;6.556;2024-03-22T14:03:01;12.48;;;4.32;;
34070;SDS011;77342;53.012;6.556;2024-03-22T14:05:28;13.55;;;4.50;;
34070;SDS011;77342;53.012;6.556;2024-03-22T14:07:54;14.32;;;4.57;;
34070;SDS011;77342;53.012;6.556;2024-03-22T14:10:20;13.05;;;4.50;;
34070;SDS011;77342;53.012;6.556;2024-03-22T14:12:48;16.60;;;5.30;;
34070;SDS011;77342;53.012;6.556;2024-03-22T14:15:15;14.07;;;4.93;;
34070;SDS011;77342;53.012;6.556;2024-03-22T14:17:41;15.80;;;4.00;;
34070;SDS011;77342;53.012;6.556;2024-03-22T14:20:08;17.20;;;4.57;;
34070;SDS011;77342;53.012;6.556;2024-03-22T14:22:40;18.10;;;4.20;;
34070;SDS011;77342;53.012;6.556;2024-03-22T14:25:07;14.82;;;3.28;;
34070;SDS011;77342;53.012;6.556;2024-03-22T14:27:33;16.80;;;3.45;;
34070;SDS011;77342;53.012;6.556;2024-03-22T14:30:04;15.35;;;3.10;;
34070;SDS011;77342;53.012;6.556;2024-03-22T14:32:33;16.25;;;2.85;;